Time;durP1;ratioP1;P1;durP2;ratioP2;P2;SDS_P1;SDS_P2;PMS_P1;PMS_P2;Temp;Humidity;BMP_temperature;BMP_pressure;BME280_temperature;BME280_humidity;BME280_pressure;Samples;Min_cycle;Max_cycle;Signal;HPM_P1;HPM_P2
2022/04/12 00:00:42;;;;;;;7.57;4.97;;;;;;;-0.72;100.00;91218.28;5053312;28;20479;-68
2022/04/12 00:03:09;;;;;;;8.82;4.78;;;;;;;-0.71;100.00;91223.28;5053306;28;20032;-68
2022/04/12 00:05:35;;;;;;;9.45;4.97;;;;;;;-0.77;100.00;91224.22;5053235;28;20503;-68
2022/04/12 00:08:01;;;;;;;10.75;5.55;;;;;;;-0.76;100.00;91222.41;5053215;28;20060;-68
2022/04/12 00:10:31;;;;;;;15.02;7.50;;;;;;;-0.82;100.00;91228.53;5052951;28;20034;-68
2022/04/12 00:12:58;;;;;;;13.18;8.27;;;;;;;-0.84;100.00;91230.59;5053019;28;20406;-68
2022/04/12 00:15:23;;;;;;;15.10;9.18;;;;;;;-0.85;100.00;91229.00;5053076;28;20450;-68
2022/04/12 00:20:33;;;;;;;12.00;7.07;;;;;;;-0.85;100.00;91214.13;5053124;28;20056;-67
2022/04/12 00:23:00;;;;;;;14.25;7.05;;;;;;;-0.91;100.00;91215.84;5052915;28;20056;-67
2022/04/12 00:25:27;;;;;;;5.55;4.75;;;;;;;-0.89;100.00;91201.78;5053192;28;20037;-67
2022/04/12 00:27:54;;;;;;;6.90;4.35;;;;;;;-0.97;100.00;91210.75;5052840;28;20391;-67
2022/04/12 00:30:20;;;;;;;6.18;4.65;;;;;;;-1.03;100.00;91212.47;5052594;28;20021;-67
2022/04/12 00:32:46;;;;;;;7.97;5.20;;;;;;;-1.13;100.00;91204.44;5052774;28;20025;-67
2022/04/12 00:35:13;;;;;;;5.30;3.97;;;;;;;-1.15;100.00;91209.09;5052799;28;20055;-67
2022/04/12 00:37:38;;;;;;;7.95;4.40;;;;;;;-1.13;100.00;91204.44;5052701;28;20029;-67
2022/04/12 00:40:04;;;;;;;7.90;4.20;;;;;;;-1.02;100.00;91203.63;5052507;28;20085;-67
2022/04/12 00:42:31;;;;;;;7.28;4.68;;;;;;;-1.00;100.00;91196.34;5052563;28;20029;-67
2022/04/12 00:44:57;;;;;;;6.88;4.15;;;;;;;-1.03;100.00;91198.63;5052196;28;20043;-67
2022/04/12 00:47:23;;;;;;;6.93;4.75;;;;;;;-1.03;100.00;91202.03;5034388;28;20502;-67
2022/04/12 00:49:48;;;;;;;7.05;4.40;;;;;;;-1.11;100.00;91199.78;5052222;28;20032;-68
2022/04/12 00:52:14;;;;;;;6.43;4.57;;;;;;;-1.13;100.00;91188.00;5052317;28;20025;-67
2022/04/12 00:54:42;;;;;;;7.03;4.45;;;;;;;-1.12;100.00;91194.78;5052192;28;20021;-67
2022/04/12 00:57:07;;;;;;;9.18;4.97;;;;;;;-1.22;100.00;91180.53;5052260;28;20021;-67
2022/04/12 00:59:34;;;;;;;8.10;5.13;;;;;;;-1.17;100.00;91181.66;5052293;28;20048;-67
2022/04/12 01:02:05;;;;;;;7.45;4.40;;;;;;;-1.12;100.00;91192.97;5051990;28;20032;-67
2022/04/12 01:04:32;;;;;;;5.45;4.15;;;;;;;-1.10;100.00;91190.94;5052037;28;20039;-67
2022/04/12 01:06:58;;;;;;;4.72;4.10;;;;;;;-1.11;100.00;91185.94;5052024;28;20028;-66
2022/04/12 01:09:27;;;;;;;6.65;4.85;;;;;;;-1.15;100.00;91179.59;5052001;28;20029;-66
2022/04/12 01:11:54;;;;;;;10.45;4.70;;;;;;;-1.24;100.00;91179.97;5051924;28;20029;-66
2022/04/12 01:14:20;;;;;;;6.05;4.40;;;;;;;-1.25;100.00;91188.84;5051913;28;20108;-66
2022/04/12 01:16:46;;;;;;;6.10;4.85;;;;;;;-1.29;100.00;91192.91;5051970;28;20116;-66
2022/04/12 01:19:11;;;;;;;6.25;4.03;;;;;;;-1.40;100.00;91179.91;5051810;28;20171;-66
2022/04/12 01:21:48;;;;;;;6.47;4.03;;;;;;;-1.38;100.00;91183.09;5051649;28;20100;-66
2022/04/12 01:24:13;;;;;;;7.28;4.50;;;;;;;-1.37;100.00;91190.69;5051664;28;20601;-66
2022/04/12 01:26:40;;;;;;;4.78;3.88;;;;;;;-1.32;100.00;91190.75;5051675;28;20033;-66
2022/04/12 01:29:05;;;;;;;4.95;3.70;;;;;;;-1.33;100.00;91186.56;5051491;28;20495;-66
2022/04/12 01:31:31;;;;;;;7.47;4.45;;;;;;;-1.42;100.00;91181.94;5051480;28;20116;-66
2022/04/12 01:33:56;;;;;;;6.82;4.57;;;;;;;-1.51;100.00;91184.91;5051566;28;20111;-66
2022/04/12 01:36:21;;;;;;;8.60;4.60;;;;;;;-1.55;100.00;91188.22;5051713;28;20032;-66
2022/04/12 01:38:47;;;;;;;6.70;4.35;;;;;;;-1.59;100.00;91185.25;5051415;28;20025;-66
2022/04/12 01:41:13;;;;;;;7.07;4.35;;;;;;;-1.57;100.00;91188.44;5051337;28;20108;-66
2022/04/12 01:43:38;;;;;;;7.70;4.35;;;;;;;-1.53;100.00;91192.19;5051403;28;20029;-66
2022/04/12 01:46:03;;;;;;;9.70;4.80;;;;;;;-1.51;100.00;91190.13;5051367;28;20497;-66
2022/04/12 01:48:29;;;;;;;7.50;4.28;;;;;;;-1.46;100.00;91191.25;5051231;28;20052;-66
2022/04/12 01:50:55;;;;;;;4.88;3.80;;;;;;;-1.47;100.00;91197.50;5051360;28;20102;-66
2022/04/12 01:53:20;;;;;;;6.82;3.47;;;;;;;-1.42;100.00;91193.19;5051372;28;20387;-66
2022/04/12 01:55:46;;;;;;;6.97;3.80;;;;;;;-1.35;100.00;91193.84;5051258;28;20391;-66
2022/04/12 01:58:11;;;;;;;6.80;3.72;;;;;;;-1.37;100.00;91179.44;5033321;28;20039;-66
2022/04/12 02:00:37;;;;;;;5.05;3.10;;;;;;;-1.34;100.00;91189.41;5051076;28;20461;-66
2022/04/12 02:03:03;;;;;;;6.30;4.03;;;;;;;-1.35;100.00;91187.84;5051090;28;20036;-66
2022/04/12 02:05:28;;;;;;;6.35;4.20;;;;;;;-1.43;100.00;91170.69;5051076;28;20051;-66
2022/04/12 02:07:54;;;;;;;3.00;2.33;;;;;;;-1.47;100.00;91179.22;5051002;28;20423;-66
2022/04/12 02:10:21;;;;;;;5.95;4.15;;;;;;;-1.51;100.00;91181.50;5050735;28;20025;-66
2022/04/12 02:12:46;;;;;;;10.30;5.38;;;;;;;-1.51;100.00;91176.28;5050467;28;20032;-65
2022/04/12 02:15:12;;;;;;;10.95;6.60;;;;;;;-1.57;100.00;91180.63;5050965;28;20033;-65
2022/04/12 02:17:37;;;;;;;12.18;5.40;;;;;;;-1.53;100.00;91186.97;5051184;28;20033;-65
2022/04/12 02:20:03;;;;;;;8.70;5.10;;;;;;;-1.57;100.00;91182.44;5050736;28;20037;-65
2022/04/12 02:22:29;;;;;;;6.45;4.32;;;;;;;-1.58;100.00;91173.81;5050825;28;20021;-65
2022/04/12 02:24:54;;;;;;;8.38;4.60;;;;;;;-1.68;100.00;91163.16;5032968;28;20036;-65
2022/04/12 02:27:19;;;;;;;6.50;3.65;;;;;;;-1.66;100.00;91178.59;5050797;28;20024;-65
2022/04/12 02:29:45;;;;;;;6.72;4.13;;;;;;;-1.68;100.00;91176.22;5050720;28;20029;-66
2022/04/12 02:32:10;;;;;;;6.50;2.97;;;;;;;-1.72;100.00;91169.06;5050721;28;20132;-65
2022/04/12 02:34:36;;;;;;;5.22;3.35;;;;;;;-1.71;100.00;91171.47;5050758;28;20029;-65
2022/04/12 02:37:01;;;;;;;6.07;4.07;;;;;;;-1.86;100.00;91176.34;5050746;28;20032;-66
2022/04/12 02:39:27;;;;;;;8.43;4.55;;;;;;;-1.82;100.00;91162.63;5050945;28;20063;-66
2022/04/12 02:41:52;;;;;;;9.93;5.90;;;;;;;-2.02;100.00;91158.78;5050646;28;20055;-65
2022/04/12 02:44:17;;;;;;;24.58;10.82;;;;;;;-1.96;100.00;91161.25;5050950;28;20453;-67
2022/04/12 02:46:43;;;;;;;5.50;3.63;;;;;;;-1.90;100.00;91169.97;5032823;28;20108;-66
2022/04/12 02:49:08;;;;;;;7.82;4.22;;;;;;;-1.89;100.00;91174.19;5050383;28;20427;-66
2022/04/12 02:51:34;;;;;;;3.47;2.72;;;;;;;-1.87;100.00;91165.13;5050524;28;20510;-66
2022/04/12 02:53:59;;;;;;;5.32;3.42;;;;;;;-1.92;100.00;91172.03;5032723;28;20407;-66
2022/04/12 02:56:25;;;;;;;5.10;4.00;;;;;;;-1.93;100.00;91163.41;5050586;28;20037;-66
2022/04/12 02:58:51;;;;;;;6.75;3.58;;;;;;;-1.93;100.00;91170.44;5050637;28;20029;-66
2022/04/12 03:01:16;;;;;;;5.70;3.88;;;;;;;-1.96;100.00;91181.31;5050595;28;20029;-66
2022/04/12 03:03:42;;;;;;;7.38;3.92;;;;;;;-1.96;100.00;91181.31;5050714;28;20473;-67
2022/04/12 03:06:07;;;;;;;3.40;3.05;;;;;;;-2.00;100.00;91170.56;5050603;28;20102;-67
2022/04/12 03:08:32;;;;;;;5.97;4.05;;;;;;;-2.00;100.00;91181.00;5190276;22;20948;-68
2022/04/12 03:10:58;;;;;;;6.22;3.83;;;;;;;-2.00;100.00;91172.38;5011253;28;20037;-67
2022/04/12 03:13:24;;;;;;;6.15;4.20;;;;;;;-2.03;100.00;91181.44;5010938;28;20033;-67
2022/04/12 03:15:49;;;;;;;5.72;3.20;;;;;;;-1.98;100.00;91181.56;5011183;28;20025;-67
2022/04/12 03:18:16;;;;;;;9.05;4.05;;;;;;;-1.98;100.00;91188.59;5010683;28;20499;-67
2022/04/12 03:20:42;;;;;;;5.50;3.88;;;;;;;-2.06;100.00;91181.09;5011135;28;20442;-67
2022/04/12 03:23:08;;;;;;;5.90;3.30;;;;;;;-2.09;100.00;91189.38;5010837;28;20542;-67
2022/04/12 03:25:33;;;;;;;4.18;3.50;;;;;;;-2.09;100.00;91194.59;5013224;28;20502;-67
2022/04/12 03:27:59;;;;;;;6.13;3.38;;;;;;;-2.16;100.00;91187.69;5014256;28;20060;-67
2022/04/12 03:30:24;;;;;;;5.47;3.92;;;;;;;-2.22;100.00;91185.16;5014055;28;20034;-68
2022/04/12 03:32:50;;;;;;;3.95;3.10;;;;;;;-2.23;100.00;91186.97;5014235;28;20037;-67
2022/04/12 03:35:15;;;;;;;4.57;3.55;;;;;;;-2.25;100.00;91180.41;5014063;28;20465;-67
2022/04/12 03:37:40;;;;;;;3.40;3.00;;;;;;;-2.21;100.00;91192.78;5014118;28;20026;-66
2022/04/12 03:40:07;;;;;;;8.13;4.03;;;;;;;-2.24;100.00;91177.56;5012735;28;20037;-67
2022/04/12 03:42:32;;;;;;;5.55;4.45;;;;;;;-2.22;100.00;91185.94;5013859;28;20026;-67
2022/04/12 03:44:57;;;;;;;8.25;4.43;;;;;;;-2.24;100.00;91184.59;5013886;28;20029;-69
2022/04/12 03:47:23;;;;;;;5.30;4.43;;;;;;;-2.23;100.00;91186.97;5013992;28;20080;-67
2022/04/12 03:49:48;;;;;;;5.80;4.10;;;;;;;-2.23;100.00;91192.19;5013756;28;20026;-66
2022/04/12 03:52:14;;;;;;;8.05;3.97;;;;;;;-2.28;100.00;91184.25;4996055;28;20041;-67
2022/04/12 03:54:39;;;;;;;6.18;3.97;;;;;;;-2.26;100.00;91176.22;5013758;28;20032;-66
2022/04/12 03:57:05;;;;;;;6.97;4.07;;;;;;;-2.20;100.00;91188.34;4996116;28;20053;-67
2022/04/12 03:59:30;;;;;;;7.38;5.25;;;;;;;-2.31;100.00;91187.31;5013379;28;20026;-67
2022/04/12 04:01:56;;;;;;;9.88;4.88;;;;;;;-2.29;100.00;91187.88;5013505;28;20502;-67
2022/04/12 04:04:21;;;;;;;7.80;5.00;;;;;;;-2.40;100.00;91188.66;5013315;28;20038;-67
2022/04/12 04:06:46;;;;;;;10.18;6.43;;;;;;;-2.25;100.00;91206.47;5014699;28;20030;-67
2022/04/12 04:09:12;;;;;;;12.30;8.57;;;;;;;-2.28;100.00;91192.06;5013158;28;20129;-67
2022/04/12 04:11:38;;;;;;;9.25;5.65;;;;;;;-2.16;100.00;91199.91;5013522;28;20030;-67
2022/04/12 04:14:05;;;;;;;35.25;13.75;;;;;;;-2.09;100.00;91199.78;5013298;28;20030;-67
2022/04/12 04:16:30;;;;;;;33.90;15.38;;;;;;;-2.02;100.00;91203.88;5013371;28;20026;-68
2022/04/12 04:18:56;;;;;;;17.67;8.40;;;;;;;-1.99;100.00;91200.81;4995594;28;20034;-67
2022/04/12 04:21:21;;;;;;;13.85;7.05;;;;;;;-2.00;100.00;91214.88;5013171;28;20029;-67
2022/04/12 04:23:46;;;;;;;14.85;6.85;;;;;;;-1.97;100.00;91204.00;5013014;28;20471;-68
2022/04/12 04:26:12;;;;;;;21.40;11.45;;;;;;;-1.89;100.00;91202.88;5013007;28;20036;-67
2022/04/12 04:28:39;;;;;;;20.40;10.55;;;;;;;-1.76;100.00;91207.03;5013022;28;20548;-67
2022/04/12 04:31:04;;;;;;;25.02;12.68;;;;;;;-1.23;100.00;91214.69;5013108;28;20083;-67
2022/04/12 04:33:30;;;;;;;37.13;18.35;;;;;;;-1.28;100.00;91206.75;5013035;28;20030;-67
2022/04/12 04:35:55;;;;;;;20.70;10.73;;;;;;;-1.30;100.00;91208.81;5012549;28;20037;-67
2022/04/12 04:38:21;;;;;;;17.15;11.25;;;;;;;-1.30;100.00;91214.81;5012913;28;20037;-69
2022/04/12 04:40:46;;;;;;;16.05;9.43;;;;;;;-1.30;100.00;91221.84;5012947;28;20034;-69
2022/04/12 04:43:12;;;;;;;13.93;8.38;;;;;;;-1.18;100.00;91220.00;5012482;28;20541;-69
2022/04/12 04:45:37;;;;;;;12.45;6.88;;;;;;;-0.61;100.00;91214.84;5012858;28;20767;-69
2022/04/12 04:48:04;;;;;;;7.80;5.57;;;;;;;0.50;100.00;91215.81;5012699;28;20458;-69
2022/04/12 04:50:32;;;;;;;15.45;7.15;;;;;;;2.61;95.23;91213.22;5012665;28;20109;-69
2022/04/12 04:52:59;;;;;;;13.20;6.97;;;;;;;4.79;77.04;91218.22;5012696;28;20549;-69
2022/04/12 04:55:25;;;;;;;16.00;6.45;;;;;;;6.92;65.93;91213.63;5012731;28;20033;-68
2022/04/12 04:57:57;;;;;;;16.23;6.70;;;;;;;8.08;57.89;91213.38;5012553;28;20030;-69
2022/04/12 05:00:25;;;;;;;5.60;4.30;;;;;;;8.32;53.52;91208.78;5012486;28;20022;-69
2022/04/12 05:02:53;;;;;;;6.93;4.30;;;;;;;8.40;52.20;91216.13;5012554;28;20021;-69
2022/04/12 05:05:19;;;;;;;12.35;6.95;;;;;;;8.99;50.43;91217.34;5012568;28;20026;-69
2022/04/12 05:07:47;;;;;;;8.15;5.55;;;;;;;9.80;48.28;91219.56;5012478;28;20466;-70
2022/04/12 05:10:14;;;;;;;16.05;7.32;;;;;;;10.36;48.02;91221.88;5027852;28;20049;-69
2022/04/12 05:12:40;;;;;;;8.45;5.13;;;;;;;11.13;45.17;91218.22;5032185;28;20029;-69
2022/04/12 05:15:06;;;;;;;10.75;5.75;;;;;;;12.03;43.97;91220.69;5031997;28;20482;-69
2022/04/12 05:17:32;;;;;;;18.63;11.27;;;;;;;13.41;41.91;91216.22;5032058;28;20025;-69
2022/04/12 05:19:57;;;;;;;22.02;10.13;;;;;;;13.80;40.94;91211.66;5031912;28;20025;-69
2022/04/12 05:22:24;;;;;;;23.83;9.07;;;;;;;14.80;39.65;91215.53;5031904;28;20061;-69
2022/04/12 05:24:49;;;;;;;22.05;9.25;;;;;;;14.59;38.76;91219.00;5032138;28;20029;-69
2022/04/12 05:27:15;;;;;;;24.70;14.30;;;;;;;16.34;37.28;91220.44;5031816;28;20034;-69
2022/04/12 05:29:41;;;;;;;15.90;8.65;;;;;;;17.34;35.44;91218.03;5031647;28;20021;-69
2022/04/12 05:32:09;;;;;;;18.77;8.13;;;;;;;17.28;34.95;91214.81;5031774;28;20380;-69
2022/04/12 05:34:38;;;;;;;27.80;15.02;;;;;;;14.74;39.27;91216.84;5031713;28;20464;-70
2022/04/12 05:37:04;;;;;;;22.55;14.27;;;;;;;15.93;38.35;91210.69;5031635;28;20084;-68
2022/04/12 05:39:30;;;;;;;12.75;7.18;;;;;;;16.56;37.08;91215.72;5031531;28;20479;-68
2022/04/12 05:42:00;;;;;;;17.75;6.35;;;;;;;17.47;34.25;91216.88;5031637;28;20102;-68
2022/04/12 05:44:29;;;;;;;11.23;6.57;;;;;;;18.14;33.21;91214.38;5031541;28;20025;-68
2022/04/12 05:46:55;;;;;;;16.88;5.35;;;;;;;16.99;36.54;91221.28;5030771;28;20110;-68
2022/04/12 05:49:21;;;;;;;14.20;6.70;;;;;;;17.31;36.17;91221.41;5031322;28;20067;-68
2022/04/12 05:51:47;;;;;;;13.00;5.93;;;;;;;17.86;35.27;91215.25;5013144;28;20029;-68
2022/04/12 05:54:13;;;;;;;10.70;5.32;;;;;;;16.40;36.63;91215.63;5031297;28;20030;-67
2022/04/12 05:56:38;;;;;;;8.75;5.40;;;;;;;17.95;35.22;91215.84;5031363;28;20056;-68
2022/04/12 05:59:06;;;;;;;7.88;6.55;;;;;;;16.95;36.16;91228.47;5031250;28;20018;-67
2022/04/12 06:01:31;;;;;;;13.38;8.38;;;;;;;18.33;34.76;91219.09;5013540;28;20029;-67
2022/04/12 06:03:57;;;;;;;12.82;7.43;;;;;;;18.13;35.49;91210.13;5030881;28;20018;-68
2022/04/12 06:06:22;;;;;;;12.32;8.35;;;;;;;18.90;35.11;91212.31;5031170;28;20041;-68
2022/04/12 06:08:48;;;;;;;10.77;5.85;;;;;;;19.67;33.81;91212.41;5030784;28;20049;-68
2022/04/12 06:11:13;;;;;;;70.07;48.55;;;;;;;20.37;33.62;91220.22;5031246;28;20109;-68
2022/04/12 06:13:39;;;;;;;11.55;7.95;;;;;;;20.45;32.62;91219.19;5031121;28;20044;-68
2022/04/12 06:16:04;;;;;;;9.52;4.03;;;;;;;20.82;31.87;91213.19;5031158;28;20510;-68
2022/04/12 06:18:29;;;;;;;18.27;11.63;;;;;;;20.02;32.82;91207.63;5030969;28;20034;-68
2022/04/12 06:20:55;;;;;;;5.72;5.13;;;;;;;19.57;32.78;91210.28;5031160;28;20487;-68
2022/04/12 06:23:21;;;;;;;10.55;6.38;;;;;;;21.73;31.06;91215.59;5031113;28;20029;-68
2022/04/12 06:25:46;;;;;;;9.18;4.90;;;;;;;22.29;29.50;91222.00;5031067;28;20032;-68
2022/04/12 06:28:12;;;;;;;8.85;5.38;;;;;;;21.87;29.70;91217.69;5031141;28;20042;-67
2022/04/12 06:30:37;;;;;;;7.57;4.00;;;;;;;22.05;29.78;91229.50;5030987;28;20620;-68
2022/04/12 06:33:03;;;;;;;10.35;4.82;;;;;;;22.61;29.69;91222.28;5030988;28;20033;-68
2022/04/12 06:35:28;;;;;;;10.07;4.75;;;;;;;24.12;28.32;91228.22;5030913;28;20422;-68
2022/04/12 06:37:56;;;;;;;9.43;6.03;;;;;;;22.85;29.50;91232.56;5030979;28;20487;-68
2022/04/12 06:40:23;;;;;;;14.57;5.55;;;;;;;22.89;29.81;91238.06;5031226;28;20026;-70
2022/04/12 06:42:49;;;;;;;13.43;5.32;;;;;;;20.23;32.25;91239.66;5030870;28;20041;-70
2022/04/12 06:45:16;;;;;;;25.50;6.47;;;;;;;18.52;33.20;91232.63;5013208;28;20026;-70
2022/04/12 06:47:42;;;;;;;12.88;7.10;;;;;;;17.93;33.12;91217.34;5030883;28;20112;-68
2022/04/12 06:50:10;;;;;;;9.80;4.45;;;;;;;15.98;35.44;91231.19;5030684;28;20032;-70
2022/04/12 06:52:36;;;;;;;9.52;4.95;;;;;;;17.24;35.37;91238.16;5030763;28;20029;-71
2022/04/12 06:55:02;;;;;;;18.05;7.82;;;;;;;17.14;35.74;91235.13;5003055;28;20389;-71
2022/04/12 06:57:32;;;;;;;12.38;6.72;;;;;;;16.16;36.63;91235.22;4973577;28;20046;-71
2022/04/12 06:59:58;;;;;;;19.88;6.57;;;;;;;18.07;35.04;91227.69;4992815;28;20203;-72
2022/04/12 07:02:23;;;;;;;14.43;4.60;;;;;;;17.88;32.53;91244.50;4994936;28;20113;-70
2022/04/12 07:04:49;;;;;;;38.88;6.80;;;;;;;17.45;34.88;91235.25;4994917;28;20030;-69
2022/04/12 07:07:15;;;;;;;5.72;3.50;;;;;;;17.88;32.23;91239.13;4994867;28;20420;-69
2022/04/12 07:09:40;;;;;;;15.93;5.45;;;;;;;17.00;34.82;91233.59;4994536;28;20057;-72
2022/04/12 07:12:06;;;;;;;11.00;4.63;;;;;;;16.79;35.31;91241.03;4994922;28;20491;-72
2022/04/12 07:14:32;;;;;;;53.83;8.32;;;;;;;17.13;35.31;91236.25;4994481;28;20046;-72
2022/04/12 07:16:59;;;;;;;41.78;5.80;;;;;;;17.30;34.14;91217.16;4994760;28;20022;-70
2022/04/12 07:19:25;;;;;;;7.68;3.80;;;;;;;18.05;32.18;91233.41;4994656;28;20096;-71
2022/04/12 07:21:51;;;;;;;7.57;3.90;;;;;;;17.75;32.19;91243.00;4994725;28;20037;-72
2022/04/12 07:24:16;;;;;;;11.27;5.78;;;;;;;16.43;34.95;91242.63;4994561;28;20039;-72
2022/04/12 07:26:42;;;;;;;18.67;3.80;;;;;;;18.11;33.16;91237.41;4994708;28;20031;-73
2022/04/12 07:29:07;;;;;;;14.07;5.30;;;;;;;15.80;34.17;91236.75;4994113;28;20061;-72
2022/04/12 07:31:33;;;;;;;10.40;3.90;;;;;;;16.38;33.51;91242.81;4994739;28;20026;-72
2022/04/12 07:33:59;;;;;;;9.82;4.43;;;;;;;17.95;31.64;91248.16;4994705;28;20566;-70
2022/04/12 07:36:25;;;;;;;4.65;4.15;;;;;;;16.46;33.49;91227.72;4994464;28;20038;-70
2022/04/12 07:38:50;;;;;;;27.48;16.20;;;;;;;16.12;35.45;91240.47;4994523;28;20065;-70
2022/04/12 07:41:17;;;;;;;30.08;21.63;;;;;;;18.82;31.01;91239.13;4994309;28;20041;-70
2022/04/12 07:43:45;;;;;;;8.13;6.25;;;;;;;19.38;29.87;91238.78;4993762;28;20030;-72
2022/04/12 07:46:12;;;;;;;14.35;7.43;;;;;;;20.20;29.10;91247.72;4976765;28;20023;-70
2022/04/12 07:48:41;;;;;;;19.90;5.93;;;;;;;19.98;31.69;91241.91;4994091;28;20038;-69
2022/04/12 07:51:07;;;;;;;4.25;3.80;;;;;;;18.34;32.74;91242.19;4994091;28;20022;-69
2022/04/12 07:53:33;;;;;;;18.13;5.60;;;;;;;18.05;31.96;91240.72;4994120;28;20038;-70
2022/04/12 07:55:58;;;;;;;5.20;3.70;;;;;;;16.03;33.23;91244.38;4993949;28;20031;-71
2022/04/12 07:58:24;;;;;;;14.32;5.40;;;;;;;16.31;35.01;91242.63;4993509;28;20030;-69
2022/04/12 08:00:50;;;;;;;15.00;6.78;;;;;;;17.12;33.17;91248.16;4993948;28;20061;-71
2022/04/12 08:03:16;;;;;;;26.45;4.50;;;;;;;16.58;33.74;91240.38;4994094;28;20057;-70
2022/04/12 08:05:42;;;;;;;13.73;4.00;;;;;;;16.18;35.66;91238.34;4993895;28;20022;-71
2022/04/12 08:08:07;;;;;;;7.22;3.80;;;;;;;16.67;33.31;91255.25;4993701;28;20094;-71
2022/04/12 08:10:33;;;;;;;8.38;4.05;;;;;;;17.84;32.54;91232.88;4992616;28;20508;-71
2022/04/12 08:12:58;;;;;;;5.35;3.22;;;;;;;17.20;33.07;91244.53;4993373;28;20411;-71
2022/04/12 08:15:24;;;;;;;5.00;3.58;;;;;;;17.62;32.79;91251.09;4993526;28;20080;-71
2022/04/12 08:17:50;;;;;;;11.52;3.40;;;;;;;18.21;31.58;91234.19;4993478;28;20026;-71
2022/04/12 08:20:15;;;;;;;13.48;6.00;;;;;;;17.29;33.78;91231.72;4993594;28;20597;-70
2022/04/12 08:22:42;;;;;;;7.32;3.88;;;;;;;16.32;34.68;91244.19;4992282;28;20579;-70
2022/04/12 08:25:08;;;;;;;7.55;4.68;;;;;;;16.15;33.92;91231.75;4993453;28;20034;-70
2022/04/12 08:27:34;;;;;;;16.35;4.07;;;;;;;17.36;32.68;91226.56;4993199;28;20034;-70
2022/04/12 08:30:00;;;;;;;48.70;7.35;;;;;;;16.67;33.60;91222.25;4993341;28;20104;-69
2022/04/12 08:32:25;;;;;;;70.72;8.80;;;;;;;16.64;34.96;91222.91;4993345;28;20190;-71
2022/04/12 08:34:51;;;;;;;16.13;5.60;;;;;;;16.96;35.12;91221.97;4993337;28;20480;-71
2022/04/12 08:37:16;;;;;;;10.25;3.83;;;;;;;16.89;34.98;91213.72;4993339;28;20049;-71
2022/04/12 08:39:42;;;;;;;24.02;9.60;;;;;;;15.33;35.02;91214.00;4993212;28;20479;-70
2022/04/12 08:42:07;;;;;;;14.55;6.75;;;;;;;15.79;35.53;91211.03;4993178;28;20072;-73
2022/04/12 08:44:36;;;;;;;30.70;11.80;;;;;;;16.21;34.84;91193.94;4992757;28;20044;-71
2022/04/12 08:47:04;;;;;;;24.63;7.97;;;;;;;16.23;33.38;91218.53;4993458;28;20034;-73
2022/04/12 08:49:29;;;;;;;17.83;6.63;;;;;;;16.29;34.97;91215.31;4993054;28;20034;-72
2022/04/12 08:51:55;;;;;;;22.52;6.15;;;;;;;16.78;34.73;91191.13;4993028;28;20045;-73
2022/04/12 08:54:21;;;;;;;9.13;3.90;;;;;;;16.95;35.08;91206.97;4993153;28;20474;-72
2022/04/12 08:56:51;;;;;;;10.70;3.78;;;;;;;17.74;35.02;91193.00;4993184;28;20057;-73
2022/04/12 08:59:18;;;;;;;31.65;5.15;;;;;;;17.12;34.00;91197.06;4992442;28;20033;-73
2022/04/12 09:01:44;;;;;;;11.65;5.38;;;;;;;18.73;33.18;91195.41;4992982;28;20045;-73
2022/04/12 09:04:10;;;;;;;8.85;3.33;;;;;;;17.73;33.74;91184.16;4992752;28;20034;-73
2022/04/12 09:06:50;;;;;;;18.48;5.22;;;;;;;18.06;33.26;91189.22;4992825;28;20442;-74
2022/04/12 09:09:18;;;;;;;5.80;3.42;;;;;;;17.49;34.42;91182.34;4992464;28;20308;-73
2022/04/12 09:12:02;;;;;;;30.20;5.28;;;;;;;16.69;33.90;91171.66;4992765;28;20113;-73
2022/04/12 09:14:42;;;;;;;12.80;5.80;;;;;;;17.86;34.49;91176.78;4993683;28;20030;-72
2022/04/12 09:17:11;;;;;;;30.42;7.22;;;;;;;17.48;34.27;91175.38;4992437;28;20037;-74
2022/04/12 09:19:41;;;;;;;16.05;4.85;;;;;;;17.32;34.93;91178.03;4992380;28;20032;-73
2022/04/12 09:22:22;;;;;;;22.58;4.70;;;;;;;17.45;35.31;91183.38;4992369;28;20475;-73
2022/04/12 09:24:50;;;;;;;20.92;4.07;;;;;;;17.48;34.08;91182.69;4992390;28;20037;-74
2022/04/12 09:27:19;;;;;;;30.65;4.65;;;;;;;16.87;34.68;91182.91;4992602;28;20112;-73
2022/04/12 09:29:55;;;;;;;20.90;5.57;;;;;;;17.67;34.73;91175.53;4992373;28;20030;-74
2022/04/12 09:32:26;;;;;;;37.35;6.05;;;;;;;18.17;34.72;91165.25;4992368;28;20045;-74
2022/04/12 09:34:53;;;;;;;35.65;6.90;;;;;;;16.62;35.32;91177.56;4992402;28;20077;-73
2022/04/12 09:37:27;;;;;;;17.30;4.28;;;;;;;18.10;33.10;91173.13;4992588;28;20121;-73
2022/04/12 09:39:55;;;;;;;15.20;4.15;;;;;;;17.27;34.10;91158.69;4992172;28;20034;-73
2022/04/12 09:42:53;;;;;;;23.95;3.65;;;;;;;16.90;33.45;91163.44;4992297;28;20026;-74
2022/04/12 09:45:22;;;;;;;8.23;4.15;;;;;;;17.48;36.12;91156.56;4992448;28;20054;-72
2022/04/12 09:47:49;;;;;;;23.38;7.22;;;;;;;17.61;33.65;91150.00;4974638;28;20771;-72
2022/04/12 09:50:15;;;;;;;17.55;4.70;;;;;;;16.55;35.69;91169.28;4992013;28;20475;-73
2022/04/12 09:52:53;;;;;;;10.32;3.25;;;;;;;16.05;34.50;91153.56;4992277;28;20054;-72
2022/04/12 09:55:37;;;;;;;11.75;3.58;;;;;;;16.75;35.63;91152.28;4992191;28;20060;-74
2022/04/12 09:58:05;;;;;;;23.30;4.60;;;;;;;18.12;33.93;91146.63;4992004;28;20045;-74
2022/04/12 10:00:32;;;;;;;18.80;4.40;;;;;;;17.91;34.01;91144.22;4991868;28;20033;-75
2022/04/12 10:03:05;;;;;;;9.02;3.78;;;;;;;18.16;34.47;91145.59;4992277;28;20458;-73
2022/04/12 10:05:31;;;;;;;14.65;5.07;;;;;;;17.13;33.80;91142.97;4991742;28;20470;-73
2022/04/12 10:07:58;;;;;;;8.18;3.92;;;;;;;17.74;34.98;91134.59;4991839;28;20042;-74
2022/04/12 10:10:25;;;;;;;27.02;4.75;;;;;;;17.19;35.23;91132.72;4997942;28;20140;-76
2022/04/12 10:12:53;;;;;;;38.72;6.40;;;;;;;16.86;36.22;91141.81;4991285;28;20034;-77
2022/04/12 10:15:19;;;;;;;20.90;5.38;;;;;;;16.82;35.01;91140.16;4991716;28;20141;-70
2022/04/12 10:17:46;;;;;;;11.50;4.78;;;;;;;16.94;37.60;91135.53;4991457;28;20423;-73
2022/04/12 10:20:12;;;;;;;57.50;6.18;;;;;;;17.56;36.94;91123.34;4991545;28;20156;-72
2022/04/12 10:22:41;;;;;;;13.80;4.18;;;;;;;18.27;34.77;91135.84;4991598;28;20837;-71
2022/04/12 10:25:08;;;;;;;6.60;3.15;;;;;;;19.71;32.60;91124.16;4991433;28;20042;-71
2022/04/12 10:27:34;;;;;;;6.30;3.20;;;;;;;18.23;35.85;91108.06;4991280;28;20129;-73
2022/04/12 10:30:15;;;;;;;18.63;4.63;;;;;;;20.40;31.57;91124.13;4991097;28;20101;-73
2022/04/12 10:33:05;;;;;;;20.63;5.65;;;;;;;18.54;35.18;91115.28;4995466;28;20038;-74
2022/04/12 10:35:54;;;;;;;11.30;3.70;;;;;;;17.78;35.31;91121.22;4997591;28;20499;-76
2022/04/12 10:38:27;;;;;;;3.67;2.42;;;;;;;19.27;31.78;91115.63;5014106;28;20046;-73
2022/04/12 10:40:52;;;;;;;;;;;;;;;19.69;31.12;91118.34;5014219;28;20030;-75
2022/04/12 10:43:36;;;;;;;10.63;4.85;;;;;;;18.75;33.16;91114.19;4997088;28;19917;-72
2022/04/12 10:46:03;;;;;;;9.00;2.67;;;;;;;18.89;32.48;91105.63;4997210;28;20128;-74
2022/04/12 10:48:30;;;;;;;11.27;5.03;;;;;;;18.25;33.11;91111.19;5010840;28;20417;-74
2022/04/12 10:50:58;;;;;;;26.85;3.72;;;;;;;19.07;34.49;91095.97;5014351;28;20037;-73
2022/04/12 10:53:39;;;;;;;5.88;3.45;;;;;;;19.40;32.83;91095.44;5014934;28;20045;-70
2022/04/12 10:56:08;;;;;;;36.55;4.35;;;;;;;18.33;32.87;91098.66;5014674;28;20045;-71
2022/04/12 10:58:33;;;;;;;11.77;3.97;;;;;;;18.16;35.34;91102.53;5014237;28;20045;-72
2022/04/12 11:00:59;;;;;;;13.88;2.53;;;;;;;18.78;31.52;91095.44;5013366;28;20499;-72
2022/04/12 11:03:40;;;;;;;7.20;3.38;;;;;;;19.11;31.11;91094.16;5013838;28;20030;-72
2022/04/12 11:06:14;;;;;;;4.43;1.63;;;;;;;18.66;31.81;91092.88;5014896;28;20054;-71
2022/04/12 11:08:46;;;;;;;6.40;2.75;;;;;;;19.07;31.10;91091.34;5017133;28;20120;-73
2022/04/12 11:11:17;;;;;;;8.13;2.63;;;;;;;18.34;32.26;91085.97;5034117;28;20563;-73
2022/04/12 11:13:44;;;;;;;4.93;2.05;;;;;;;18.05;33.69;91095.34;5016228;28;20080;-73
2022/04/12 11:16:11;;;;;;;10.05;3.08;;;;;;;19.55;30.86;91088.41;5022542;28;20034;-73
2022/04/12 11:18:53;;;;;;;13.73;5.38;;;;;;;19.73;32.33;91094.91;5013246;28;20050;-73
2022/04/12 11:21:43;;;;;;;20.35;3.30;;;;;;;19.62;32.31;91088.53;4996476;28;20450;-73
2022/04/12 11:24:12;;;;;;;82.22;55.45;;;;;;;19.95;31.33;91090.63;4977361;28;20431;-74
2022/04/12 11:26:47;;;;;;;10.90;5.05;;;;;;;20.51;29.14;91087.22;4994596;28;20068;-74
2022/04/12 11:29:20;;;;;;;10.10;3.05;;;;;;;19.70;33.87;91074.00;5012018;28;20038;-74